Time;durP1;ratioP1;P1;durP2;ratioP2;P2;SDS_P1;SDS_P2;PMS_P1;PMS_P2;Temp;Humidity;BMP_temperature;BMP_pressure;BME280_temperature;BME280_humidity;BME280_pressure;Samples;Min_cycle;Max_cycle;Signal;HPM_P1;HPM_P2
2021/08/13 00:03:05;;;;;;;;;;;;;;;;;;10274479;28;20389;-57
2021/08/13 00:08:02;;;;;;;;;;;;;;;;;;10257873;28;19918;-57
2021/08/13 00:12:59;;;;;;;;;;;;;;;;;;10258084;28;19921;-57
2021/08/13 00:17:57;;;;;;;;;;;;;;;;;;10262860;28;19982;-57
2021/08/13 00:22:54;;;;;;;;;;;;;;;;;;10264514;28;19933;-57
2021/08/13 00:27:51;;;;;;;;;;;;;;;;;;10266437;28;20004;-59
2021/08/13 00:32:51;;;;;;;;;;;;;;;;;;10267479;28;20511;-56
2021/08/13 00:37:48;;;;;;;;;;;;;;;;;;10258788;28;19929;-58
2021/08/13 00:42:46;;;;;;;;;;;;;;;;;;10269017;28;19921;-57
2021/08/13 00:47:44;;;;;;;;;;;;;;;;;;10267585;28;20020;-55
2021/08/13 00:52:49;;;;;;;;;;;;;;;;;;10274418;28;19925;-55
2021/08/13 00:57:49;;;;;;;;;;;;;;;;;;10293039;28;20075;-56
2021/08/13 01:03:04;;;;;;;;;;;;;;;;;;10271237;28;19925;-56
2021/08/13 01:08:03;;;;;;;;;;;;;;;;;;10269821;28;19933;-57
2021/08/13 01:13:00;;;;;;;;;;;;;;;;;;10263820;28;20503;-60
2021/08/13 01:17:59;;;;;;;;;;;;;;;;;;10267838;28;19925;-60
2021/08/13 01:22:59;;;;;;;;;;;;;;;;;;10267097;28;20007;-57
2021/08/13 01:27:57;;;;;;;;;;;;;;;;;;10262320;28;19918;-60
2021/08/13 01:32:54;;;;;;;;;;;;;;;;;;10272612;28;19982;-61
2021/08/13 01:37:52;;;;;;;;;;;;;;;;;;10273309;28;19924;-60
2021/08/13 01:42:50;;;;;;;;;;;;;;;;;;10263710;28;19925;-60
2021/08/13 01:47:50;;;;;;;;;;;;;;;;;;10263321;28;20321;-58
2021/08/13 01:52:47;;;;;;;;;;;;;;;;;;10274249;28;20003;-59
2021/08/13 01:57:45;;;;;;;;;;;;;;;;;;10272938;28;20027;-57
2021/08/13 02:02:43;;;;;;;;;;;;;;;;;;10272320;28;19925;-57
2021/08/13 02:07:42;;;;;;;;;;;;;;;;;;10267607;28;20001;-57
2021/08/13 02:12:40;;;;;;;;;;;;;;;;;;10272444;28;19932;-56
2021/08/13 02:17:38;;;;;;;;;;;;;;;;;;10269678;28;19921;-57
2021/08/13 02:22:35;;;;;;;;;;;;;;;;;;10272481;28;19987;-58
2021/08/13 02:27:33;;;;;;;;;;;;;;;;;;10269059;28;20357;-57
2021/08/13 02:32:30;;;;;;;;;;;;;;;;;;10273469;28;19967;-57
2021/08/13 02:37:29;;;;;;;;;;;;;;;;;;10266086;28;19937;-58
2021/08/13 02:42:26;;;;;;;;;;;;;;;;;;10271435;28;19929;-56
2021/08/13 02:47:24;;;;;;;;;;;;;;;;;;10274838;28;19969;-55
2021/08/13 02:52:21;;;;;;;;;;;;;;;;;;10274913;28;19925;-57
2021/08/13 02:57:19;;;;;;;;;;;;;;;;;;10266397;28;19983;-56
2021/08/13 03:02:17;;;;;;;;;;;;;;;;;;10294290;28;19925;-54
2021/08/13 03:07:14;;;;;;;;;;;;;;;;;;10292963;28;19925;-56
2021/08/13 03:12:11;;;;;;;;;;;;;;;;;;10292128;28;20652;-58
2021/08/13 03:17:09;;;;;;;;;;;;;;;;;;10289054;28;19947;-57
2021/08/13 03:22:06;;;;;;;;;;;;;;;;;;10292036;28;20296;-55
2021/08/13 03:27:04;;;;;;;;;;;;;;;;;;10291864;28;20233;-57
2021/08/13 03:32:04;;;;;;;;;;;;;;;;;;10288925;28;20440;-58
2021/08/13 03:37:02;;;;;;;;;;;;;;;;;;10292040;28;19921;-57
2021/08/13 03:42:01;;;;;;;;;;;;;;;;;;10289370;28;19924;-57
2021/08/13 03:46:58;;;;;;;;;;;;;;;;;;10289354;28;19920;-58
2021/08/13 03:51:57;;;;;;;;;;;;;;;;;;10290412;28;20176;-57
2021/08/13 03:56:54;;;;;;;;;;;;;;;;;;10287877;28;20240;-57
2021/08/13 04:01:52;;;;;;;;;;;;;;;;;;10287116;28;20012;-57
2021/08/13 04:06:49;;;;;;;;;;;;;;;;;;10287236;28;20416;-58
2021/08/13 04:11:47;;;;;;;;;;;;;;;;;;10289565;28;20373;-57
2021/08/13 04:16:44;;;;;;;;;;;;;;;;;;10285920;28;19917;-58
2021/08/13 04:21:42;;;;;;;;;;;;;;;;;;10284035;28;19929;-58
2021/08/13 04:26:40;;;;;;;;;;;;;;;;;;10286116;28;20581;-58
2021/08/13 04:31:37;;;;;;;;;;;;;;;;;;10285795;28;19936;-58
2021/08/13 04:36:35;;;;;;;;;;;;;;;;;;10285724;28;19979;-58
2021/08/13 04:41:34;;;;;;;;;;;;;;;;;;10286605;28;19987;-58
2021/08/13 04:46:31;;;;;;;;;;;;;;;;;;10286926;28;19917;-57
2021/08/13 04:51:28;;;;;;;;;;;;;;;;;;10288091;28;20368;-55
2021/08/13 04:56:26;;;;;;;;;;;;;;;;;;10286384;28;19921;-55
2021/08/13 05:01:24;;;;;;;;;;;;;;;;;;10284321;28;20342;-55
2021/08/13 05:06:21;;;;;;;;;;;;;;;;;;10286350;28;20292;-55
2021/08/13 05:11:19;;;;;;;;;;;;;;;;;;10279079;28;19925;-61
2021/08/13 05:16:16;;;;;;;;;;;;;;;;;;10285645;28;21314;-60
2021/08/13 05:21:13;;;;;;;;;;;;;;;;;;10285817;28;19932;-61
2021/08/13 05:26:10;;;;;;;;;;;;;;;;;;10288288;28;19925;-60
2021/08/13 05:31:08;;;;;;;;;;;;;;;;;;10284815;28;19924;-63
2021/08/13 05:36:06;;;;;;;;;;;;;;;;;;10284988;28;19972;-58
2021/08/13 05:41:04;;;;;;;;;;;;;;;;;;10284322;28;20016;-57
2021/08/13 05:46:02;;;;;;;;;;;;;;;;;;10284387;28;19917;-55
2021/08/13 05:50:59;;;;;;;;;;;;;;;;;;10283622;28;19917;-56
2021/08/13 05:55:58;;;;;;;;;;;;;;;;;;10264877;28;20356;-56
2021/08/13 06:00:55;;;;;;;;;;;;;;;;;;10261404;28;19929;-61
2021/08/13 06:05:52;;;;;;;;;;;;;;;;;;10282912;28;20176;-60
2021/08/13 06:10:51;;;;;;;;;;;;;;;;;;10226388;28;20011;-60
2021/08/13 06:15:49;;;;;;;;;;;;;;;;;;10245624;28;19917;-54
2021/08/13 06:20:47;;;;;;;;;;;;;;;;;;10253180;28;21852;-58
2021/08/13 06:25:55;;;;;;;;;;;;;;;;;;10261463;28;20347;-55
2021/08/13 06:30:54;;;;;;;;;;;;;;;;;;10254978;28;20308;-56
2021/08/13 06:35:51;;;;;;;;;;;;;;;;;;10253160;28;19927;-62
2021/08/13 06:40:49;;;;;;;;;;;;;;;;;;10247352;28;19994;-56
2021/08/13 06:45:51;;;;;;;;;;;;;;;;;;10244475;28;20338;-56
2021/08/13 06:50:55;;;;;;;;;;;;;;;;;;10242314;28;19925;-56
2021/08/13 06:55:54;;;;;;;;;;;;;;;;;;10253004;28;19922;-58
2021/08/13 07:00:52;;;;;;;;;;;;;;;;;;10258490;28;19930;-56
2021/08/13 07:05:49;;;;;;;;;;;;;;;;;;10245951;28;19933;-57
2021/08/13 07:10:46;;;;;;;;;;;;;;;;;;10234731;28;20356;-57
2021/08/13 07:15:44;;;;;;;;;;;;;;;;;;10233402;28;19917;-57
2021/08/13 07:20:41;;;;;;;;;;;;;;;;;;10237321;28;20369;-58
2021/08/13 07:25:40;;;;;;;;;;;;;;;;;;10242896;28;19928;-59
2021/08/13 07:30:38;;;;;;;;;;;;;;;;;;10259485;28;19925;-58
2021/08/13 07:35:35;;;;;;;;;;;;;;;;;;10257628;28;20345;-55
2021/08/13 07:40:33;;;;;;;;;;;;;;;;;;10270166;28;19927;-56
2021/08/13 07:45:31;;;;;;;;;;;;;;;;;;10260314;28;19923;-55
2021/08/13 07:50:28;;;;;;;;;;;;;;;;;;10234087;28;19979;-54
2021/08/13 07:55:29;;;;;;;;;;;;;;;;;;10271742;28;20052;-57
2021/08/13 08:00:27;;;;;;;;;;;;;;;;;;10256150;28;20075;-57
2021/08/13 08:05:24;;;;;;;;;;;;;;;;;;10254311;28;19925;-57
2021/08/13 08:10:21;;;;;;;;;;;;;;;;;;10246226;28;20715;-57
2021/08/13 08:15:18;;;;;;;;;;;;;;;;;;10243035;28;19936;-57
2021/08/13 08:20:16;;;;;;;;;;;;;;;;;;10245775;28;19967;-58
2021/08/13 08:25:13;;;;;;;;;;;;;;;;;;10234874;28;20004;-58
2021/08/13 08:30:10;;;;;;;;;;;;;;;;;;10233332;28;19921;-56
2021/08/13 08:35:07;;;;;;;;;;;;;;;;;;10262823;28;19921;-56
2021/08/13 08:40:05;;;;;;;;;;;;;;;;;;10251245;28;20224;-58
2021/08/13 08:45:02;;;;;;;;;;;;;;;;;;10251727;28;19921;-62
2021/08/13 08:49:59;;;;;;;;;;;;;;;;;;10276097;28;19917;-61
2021/08/13 08:54:56;;;;;;;;;;;;;;;;;;10236542;28;20068;-57
2021/08/13 08:59:54;;;;;;;;;;;;;;;;;;10254211;28;19925;-63
2021/08/13 09:04:51;;;;;;;;;;;;;;;;;;10242738;28;20540;-58
2021/08/13 09:09:48;;;;;;;;;;;;;;;;;;10257672;28;19944;-56
2021/08/13 09:14:45;;;;;;;;;;;;;;;;;;10248229;28;19918;-59
2021/08/13 09:19:43;;;;;;;;;;;;;;;;;;10237200;28;20225;-61
2021/08/13 09:24:42;;;;;;;;;;;;;;;;;;10249806;28;20084;-63
2021/08/13 09:29:40;;;;;;;;;;;;;;;;;;10257519;28;19939;-59
2021/08/13 09:34:51;;;;;;;;;;;;;;;;;;10249380;28;19925;-60
2021/08/13 09:39:48;;;;;;;;;;;;;;;;;;10227288;28;20448;-60
2021/08/13 09:44:45;;;;;;;;;;;;;;;;;;10257433;28;20361;-61
2021/08/13 09:49:43;;;;;;;;;;;;;;;;;;10238254;28;19946;-61
2021/08/13 09:54:40;;;;;;;;;;;;;;;;;;10272408;28;20369;-56
2021/08/13 09:59:39;;;;;;;;;;;;;;;;;;10264620;28;19925;-56
2021/08/13 10:04:37;;;;;;;;;;;;;;;;;;10248149;28;19934;-56
2021/08/13 10:09:34;;;;;;;;;;;;;;;;;;10264235;28;19925;-57
2021/08/13 10:14:32;;;;;;;;;;;;;;;;;;10270431;28;19921;-57
2021/08/13 10:19:29;;;;;;;;;;;;;;;;;;10247964;28;20337;-54
2021/08/13 10:24:27;;;;;;;;;;;;;;;;;;10233056;28;20016;-56
2021/08/13 10:29:24;;;;;;;;;;;;;;;;;;10235900;28;19921;-57
2021/08/13 10:34:21;;;;;;;;;;;;;;;;;;10255360;28;20791;-57
2021/08/13 10:39:37;;;;;;;;;;;;;;;;;;10252494;28;19925;-56
2021/08/13 10:44:35;;;;;;;;;;;;;;;;;;10265019;28;19928;-56
2021/08/13 10:49:34;;;;;;;;;;;;;;;;;;10252615;28;20160;-59
2021/08/13 10:54:31;;;;;;;;;;;;;;;;;;10241285;28;20592;-55
2021/08/13 10:59:28;;;;;;;;;;;;;;;;;;10244628;28;20377;-59
2021/08/13 11:04:26;;;;;;;;;;;;;;;;;;10245397;28;19923;-56
2021/08/13 11:09:23;;;;;;;;;;;;;;;;;;10225723;28;20332;-57
2021/08/13 11:14:24;;;;;;;;;;;;;;;;;;10239223;28;19992;-58
2021/08/13 11:19:23;;;;;;;;;;;;;;;;;;10248615;28;19929;-56
2021/08/13 11:24:23;;;;;;;;;;;;;;;;;;10258530;28;19922;-56
2021/08/13 11:29:24;;;;;;;;;;;;;;;;;;10264630;28;19924;-57
2021/08/13 11:34:21;;;;;;;;;;;;;;;;;;10252135;28;19925;-58
2021/08/13 11:39:18;;;;;;;;;;;;;;;;;;10247180;28;19936;-58
2021/08/13 11:44:16;;;;;;;;;;;;;;;;;;10255972;28;19921;-57
2021/08/13 11:49:14;;;;;;;;;;;;;;;;;;10242736;28;19917;-56
2021/08/13 11:54:12;;;;;;;;;;;;;;;;;;10252080;28;19925;-56
2021/08/13 11:59:09;;;;;;;;;;;;;;;;;;10245271;28;20395;-61
2021/08/13 12:04:11;;;;;;;;;;;;;;;;;;10255101;28;20226;-61
2021/08/13 12:09:09;;;;;;;;;;;;;;;;;;10254102;28;19940;-62
2021/08/13 12:14:06;;;;;;;;;;;;;;;;;;10258034;28;19934;-57
2021/08/13 12:19:03;;;;;;;;;;;;;;;;;;10252982;28;19921;-58
2021/08/13 12:24:01;;;;;;;;;;;;;;;;;;10255704;28;19943;-56
2021/08/13 12:28:59;;;;;;;;;;;;;;;;;;10260788;28;20109;-57
2021/08/13 12:33:56;;;;;;;;;;;;;;;;;;10270217;28;19944;-58
2021/08/13 12:38:56;;;;;;;;;;;;;;;;;;10233679;28;19925;-57
2021/08/13 12:43:53;;;;;;;;;;;;;;;;;;10260695;28;20471;-57
2021/08/13 12:48:50;;;;;;;;;;;;;;;;;;10238227;28;19913;-57
2021/08/13 12:53:50;;;;;;;;;;;;;;;;;;10242184;28;19972;-56
2021/08/13 12:58:47;;;;;;;;;;;;;;;;;;10248729;28;19933;-56
2021/08/13 13:03:45;;;;;;;;;;;;;;;;;;10243954;28;20374;-57
2021/08/13 13:08:42;;;;;;;;;;;;;;;;;;10251098;28;19928;-56
2021/08/13 13:13:40;;;;;;;;;;;;;;;;;;10230981;28;20004;-56
2021/08/13 13:18:39;;;;;;;;;;;;;;;;;;10241616;28;20328;-55
2021/08/13 13:23:36;;;;;;;;;;;;;;;;;;10248744;28;19921;-56
2021/08/13 13:28:38;;;;;;;;;;;;;;;;;;10253037;28;19917;-61
2021/08/13 13:33:40;;;;;;;;;;;;;;;;;;10262931;28;20082;-62
2021/08/13 13:38:51;;;;;;;;;;;;;;;;;;10250720;28;20274;-60
2021/08/13 13:43:49;;;;;;;;;;;;;;;;;;10230766;28;19913;-62
2021/08/13 13:48:49;;;;;;;;;;;;;;;;;;10256678;28;19948;-62
2021/08/13 13:53:46;;;;;;;;;;;;;;;;;;10246250;28;19921;-59
2021/08/13 13:58:45;;;;;;;;;;;;;;;;;;10260510;28;19921;-56
2021/08/13 14:03:44;;;;;;;;;;;;;;;;;;10236788;28;19967;-55
2021/08/13 14:08:43;;;;;;;;;;;;;;;;;;10227244;28;19924;-57
2021/08/13 14:13:41;;;;;;;;;;;;;;;;;;10232361;28;19976;-54
2021/08/13 14:18:38;;;;;;;;;;;;;;;;;;10245405;28;19924;-56
2021/08/13 14:23:35;;;;;;;;;;;;;;;;;;10239629;28;19986;-59
2021/08/13 14:28:33;;;;;;;;;;;;;;;;;;10260389;28;19967;-58
2021/08/13 14:33:30;;;;;;;;;;;;;;;;;;10258843;28;20170;-58
2021/08/13 14:38:27;;;;;;;;;;;;;;;;;;10228121;28;20911;-56
2021/08/13 14:43:25;;;;;;;;;;;;;;;;;;10230121;28;19979;-58
2021/08/13 14:48:22;;;;;;;;;;;;;;;;;;10256923;28;20043;-55
2021/08/13 14:53:19;;;;;;;;;;;;;;;;;;10232857;28;19925;-57
2021/08/13 14:58:17;;;;;;;;;;;;;;;;;;10252281;28;20277;-55
2021/08/13 15:03:14;;;;;;;;;;;;;;;;;;10247415;28;20452;-56
2021/08/13 15:08:11;;;;;;;;;;;;;;;;;;10262902;28;19918;-56
2021/08/13 15:13:09;;;;;;;;;;;;;;;;;;10243623;28;20444;-61
2021/08/13 15:18:06;;;;;;;;;;;;;;;;;;10243765;28;20362;-60
2021/08/13 15:23:03;;;;;;;;;;;;;;;;;;10246909;28;19920;-53
2021/08/13 15:28:00;;;;;;;;;;;;;;;;;;10250461;28;20451;-59
2021/08/13 15:32:58;;;;;;;;;;;;;;;;;;10238143;28;19968;-59
2021/08/13 15:37:55;;;;;;;;;;;;;;;;;;10250602;28;19921;-61
2021/08/13 15:42:53;;;;;;;;;;;;;;;;;;10246373;28;19924;-57
2021/08/13 15:47:50;;;;;;;;;;;;;;;;;;10246049;28;20419;-58
2021/08/13 15:52:50;;;;;;;;;;;;;;;;;;10252804;28;19964;-57
2021/08/13 15:57:48;;;;;;;;;;;;;;;;;;10258752;28;20139;-58
2021/08/13 16:02:45;;;;;;;;;;;;;;;;;;10253000;28;19998;-59
2021/08/13 16:07:43;;;;;;;;;;;;;;;;;;10255606;28;19917;-59
2021/08/13 16:12:41;;;;;;;;;;;;;;;;;;10249372;28;20645;-58
2021/08/13 16:17:38;;;;;;;;;;;;;;;;;;10242628;28;19940;-58
2021/08/13 16:22:35;;;;;;;;;;;;;;;;;;10256743;28;19921;-59
2021/08/13 16:27:34;;;;;;;;;;;;;;;;;;10254134;28;19957;-58
2021/08/13 16:32:32;;;;;;;;;;;;;;;;;;10257792;28;19917;-59
2021/08/13 16:37:29;;;;;;;;;;;;;;;;;;10251754;28;19925;-57
2021/08/13 16:42:27;;;;;;;;;;;;;;;;;;10257553;28;19979;-58
2021/08/13 16:47:24;;;;;;;;;;;;;;;;;;10255522;28;20018;-57
2021/08/13 16:52:30;;;;;;;;;;;;;;;;;;10247381;28;19971;-60
2021/08/13 16:57:29;;;;;;;;;;;;;;;;;;10259222;28;20005;-63
2021/08/13 17:02:26;;;;;;;;;;;;;;;;;;10267757;28;19921;-59
2021/08/13 17:07:23;;;;;;;;;;;;;;;;;;10237277;28;19971;-58
2021/08/13 17:12:21;;;;;;;;;;;;;;;;;;10252767;28;19917;-59
2021/08/13 17:17:18;;;;;;;;;;;;;;;;;;10245493;28;19984;-58
2021/08/13 17:22:16;;;;;;;;;;;;;;;;;;10244318;28;20282;-57
2021/08/13 17:27:13;;;;;;;;;;;;;;;;;;10238238;28;19918;-58
2021/08/13 17:32:10;;;;;;;;;;;;;;;;;;10253466;28;20400;-58
2021/08/13 17:37:07;;;;;;;;;;;;;;;;;;10254243;28;19978;-58
2021/08/13 17:42:05;;;;;;;;;;;;;;;;;;10262447;28;20297;-57
2021/08/13 17:47:02;;;;;;;;;;;;;;;;;;10240497;28;20436;-56
2021/08/13 17:52:00;;;;;;;;;;;;;;;;;;10263356;28;19921;-59
2021/08/13 17:56:57;;;;;;;;;;;;;;;;;;10260622;28;19967;-57
2021/08/13 18:01:54;;;;;;;;;;;;;;;;;;10240404;28;19925;-61
2021/08/13 18:06:52;;;;;;;;;;;;;;;;;;10253152;28;20288;-61
2021/08/13 18:11:49;;;;;;;;;;;;;;;;;;10246840;28;19933;-58
2021/08/13 18:16:46;;;;;;;;;;;;;;;;;;10257392;28;19921;-59
2021/08/13 18:21:44;;;;;;;;;;;;;;;;;;10252727;28;19921;-58
2021/08/13 18:26:41;;;;;;;;;;;;;;;;;;10243623;28;19918;-61
2021/08/13 18:31:39;;;;;;;;;;;;;;;;;;10250702;28;19921;-63
2021/08/13 18:36:37;;;;;;;;;;;;;;;;;;10229991;28;19928;-62
2021/08/13 18:41:34;;;;;;;;;;;;;;;;;;10233259;28;19925;-58
2021/08/13 18:46:31;;;;;;;;;;;;;;;;;;10226951;28;20741;-58
2021/08/13 18:51:28;;;;;;;;;;;;;;;;;;10240624;28;19936;-57
2021/08/13 18:56:26;;;;;;;;;;;;;;;;;;10243221;28;19917;-61
2021/08/13 19:01:23;;;;;;;;;;;;;;;;;;10230734;28;19932;-60
2021/08/13 19:06:21;;;;;;;;;;;;;;;;;;10256754;28;20343;-61
2021/08/13 19:11:18;;;;;;;;;;;;;;;;;;10249273;28;20261;-58
2021/08/13 19:16:15;;;;;;;;;;;;;;;;;;10245373;28;19917;-61
2021/08/13 19:21:12;;;;;;;;;;;;;;;;;;10244575;28;20347;-57
2021/08/13 19:26:10;;;;;;;;;;;;;;;;;;10252304;28;19921;-57
2021/08/13 19:31:07;;;;;;;;;;;;;;;;;;10230199;28;19941;-57
2021/08/13 19:36:04;;;;;;;;;;;;;;;;;;10244680;28;19925;-57
2021/08/13 19:41:02;;;;;;;;;;;;;;;;;;10249919;28;21106;-57
2021/08/13 19:45:59;;;;;;;;;;;;;;;;;;10273888;28;19917;-58
2021/08/13 19:51:01;;;;;;;;;;;;;;;;;;10279498;28;19951;-57
2021/08/13 19:56:03;;;;;;;;;;;;;;;;;;10250713;28;19976;-57
2021/08/13 20:01:00;;;;;;;;;;;;;;;;;;10233019;28;19917;-57
2021/08/13 20:05:57;;;;;;;;;;;;;;;;;;10246886;28;19927;-59
2021/08/13 20:10:55;;;;;;;;;;;;;;;;;;10262256;28;19919;-58
2021/08/13 20:15:52;;;;;;;;;;;;;;;;;;10269985;28;20011;-55
2021/08/13 20:20:49;;;;;;;;;;;;;;;;;;10258767;28;19917;-56
2021/08/13 20:25:48;;;;;;;;;;;;;;;;;;10276248;28;19914;-58
2021/08/13 20:30:47;;;;;;;;;;;;;;;;;;10254843;28;20289;-56
2021/08/13 20:35:45;;;;;;;;;;;;;;;;;;10263435;28;19948;-58
2021/08/13 20:40:44;;;;;;;;;;;;;;;;;;10251011;28;19931;-57
2021/08/13 20:45:42;;;;;;;;;;;;;;;;;;10271095;28;20015;-62
2021/08/13 20:50:40;;;;;;;;;;;;;;;;;;10257910;28;19925;-58
2021/08/13 20:55:37;;;;;;;;;;;;;;;;;;10240275;28;19921;-63
2021/08/13 21:00:34;;;;;;;;;;;;;;;;;;10255904;28;19979;-60
2021/08/13 21:05:32;;;;;;;;;;;;;;;;;;10255427;28;19924;-59
2021/08/13 21:10:29;;;;;;;;;;;;;;;;;;10244623;28;20005;-62
2021/08/13 21:15:26;;;;;;;;;;;;;;;;;;10242407;28;19928;-61
2021/08/13 21:20:23;;;;;;;;;;;;;;;;;;10240392;28;20285;-57
2021/08/13 21:25:21;;;;;;;;;;;;;;;;;;10261278;28;20389;-59
2021/08/13 21:30:18;;;;;;;;;;;;;;;;;;10263899;28;20788;-58
2021/08/13 21:35:15;;;;;;;;;;;;;;;;;;10256965;28;19992;-60
2021/08/13 21:40:12;;;;;;;;;;;;;;;;;;10292911;22;20747;-69
2021/08/13 21:45:10;;;;;;;;;;;;;;;;;;10288718;28;19917;-70
2021/08/13 21:50:07;;;;;;;;;;;;;;;;;;10292341;28;20383;-69
2021/08/13 21:55:04;;;;;;;;;;;;;;;;;;10258106;28;19917;-69
2021/08/13 22:00:01;;;;;;;;;;;;;;;;;;10261270;28;20302;-68
2021/08/13 22:05:01;;;;;;;;;;;;;;;;;;10253665;28;19932;-69
2021/08/13 22:09:58;;;;;;;;;;;;;;;;;;10284201;28;20637;-68
2021/08/13 22:14:56;;;;;;;;;;;;;;;;;;10286873;28;19921;-69
2021/08/13 22:19:53;;;;;;;;;;;;;;;;;;10259528;28;19917;-70
2021/08/13 22:24:50;;;;;;;;;;;;;;;;;;10256728;28;20369;-69
2021/08/13 22:29:47;;;;;;;;;;;;;;;;;;10244866;28;20297;-69
2021/08/13 22:34:45;;;;;;;;;;;;;;;;;;10273457;28;19919;-69
2021/08/13 22:39:42;;;;;;;;;;;;;;;;;;10262653;28;19923;-70
2021/08/13 22:44:39;;;;;;;;;;;;;;;;;;10266093;28;19913;-69
2021/08/13 22:49:37;;;;;;;;;;;;;;;;;;10272880;28;19924;-69
2021/08/13 22:54:34;;;;;;;;;;;;;;;;;;10272376;28;19925;-69
2021/08/13 22:59:31;;;;;;;;;;;;;;;;;;10275392;28;21185;-70
2021/08/13 23:04:28;;;;;;;;;;;;;;;;;;10272843;28;19928;-69
2021/08/13 23:09:26;;;;;;;;;;;;;;;;;;10264179;28;20296;-70
2021/08/13 23:14:23;;;;;;;;;;;;;;;;;;10288409;28;19924;-70
2021/08/13 23:19:20;;;;;;;;;;;;;;;;;;10284572;28;19944;-69
2021/08/13 23:24:17;;;;;;;;;;;;;;;;;;10273405;28;19917;-70
2021/08/13 23:29:15;;;;;;;;;;;;;;;;;;10288395;28;19917;-70
2021/08/13 23:34:12;;;;;;;;;;;;;;;;;;10277988;28;19924;-69
2021/08/13 23:39:09;;;;;;;;;;;;;;;;;;10271695;28;19937;-70
2021/08/13 23:44:07;;;;;;;;;;;;;;;;;;10282870;28;20774;-70
2021/08/13 23:49:04;;;;;;;;;;;;;;;;;;10286582;28;19924;-69
2021/08/13 23:54:01;;;;;;;;;;;;;;;;;;10287948;28;19925;-70
2021/08/13 23:58:58;;;;;;;;;;;;;;;;;;10286187;28;19921;-70
